CheckWX is a tool to help pilots better visualize weather data.  It is not intended as a substitute for an official pre-flight weather briefing.

21:25:07 UTC

DIYO METAR
Yamoussoukro Airport
Yamoussoukro, Côte D’Ivoire
Current

25 mins ago

DIYO 252100Z 00000KT 9999 FEW010 BKN100 24/24 Q1014 NOSIG
Observed
May-25 @ 21:00 UTC
Visibility
10,000+ meters
Flight Rules
VFR
Cloud Levels
  • Few at 1,000' AGL
  • Broken at 10,000' AGL
Temperature
24°C / 75°F
Dewpoint
24°C / 75°F
Humidity
100%
Altimeter
29.94" Hg
Pressure
1013.92 hPa
Previous

1 hour ago

DIYO 252000Z 22004KT 9999 FEW010 BKN100 24/23 Q1013 NOSIG
Observed
May-25 @ 20:00 UTC
Wind
  • 220° at 4 KTS
Visibility
10,000+ meters
Flight Rules
VFR
Cloud Levels
  • Few at 1,000' AGL
  • Broken at 10,000' AGL
Temperature
24°C / 75°F
Dewpoint
23°C / 73°F
Humidity
94%
Altimeter
29.91" Hg
Pressure
1012.92 hPa
Previous

2 hours ago

DIYO 251900Z 00000KT 9999 FEW010 BKN100 25/24 Q1012 NOSIG
Observed
May-25 @ 19:00 UTC
Visibility
10,000+ meters
Flight Rules
VFR
Cloud Levels
  • Few at 1,000' AGL
  • Broken at 10,000' AGL
Temperature
25°C / 77°F
Dewpoint
24°C / 75°F
Humidity
94%
Altimeter
29.88" Hg
Pressure
1011.92 hPa